Impacts TAF Board
For situational awareness. Not to be used for flight planning purposes.
IDs:

KSFO - San Francisco Intl, CA, US

Issued at 1120 UTC 19 Aug 2019
Updated at 1347 UTC 19 Aug 2019
Potential Impact None Slight Moderate High
Time<<20/02Z 20/03Z 20/04Z 20/05Z 20/06Z 20/07Z 20/08Z 20/09Z 20/10Z 20/11Z 20/12Z 20/13Z 20/14Z>>
Type PRVL PRVL PRVL PRVL PRVL PRVL PRVL PRVL PRVL PRVL PRVL PRVL PRVL
VIS >6 >6 >6 >6 >6 >6 >6 >6 >6 >6 >6 >6 >6
CIG -- -- 15 15 15 15 15 15 15 15 15 15 15
Cover FEW FEW OVC OVC OVC OVC OVC OVC OVC OVC OVC OVC OVC
FltCat VFR VFR MVFR MVFR MVFR MVFR MVFR MVFR MVFR MVFR MVFR MVFR MVFR
WX -- -- -- -- -- -- -- -- -- -- -- -- --
WDir 260 260 270 270 270 270 270 270 270 270 270 270 270
WSpd 15 15 12 12 12 12 12 12 12 12 12 12 12
WGst 22 22 -- -- -- -- -- -- -- -- -- -- --
Raw TAF
KSFO 191120Z 1912/2018 21008KT P6SM OVC015
  FM191700 21006KT P6SM SCT015
  FM192000 26015G22KT P6SM FEW015
  FM200400 27012KT P6SM OVC015
  FM201730 27010KT P6SM BKN015


METAR Board
Radar Display
Forecast Discussion
For situational awareness. Not to be used for flight planning purposes.